sensor_id;sensor_type;location;lat;lon;timestamp;pressure;altitude;pressure_sealevel;temperature;humidity
26436;BME280;15351;52.408;16.826;2023-12-20T00:00:19;100127.04;;;9.30;89.30
26436;BME280;15351;52.408;16.826;2023-12-20T00:03:22;100119.41;;;9.30;89.33
26436;BME280;15351;52.408;16.826;2023-12-20T00:06:38;100117.82;;;9.31;89.27
26436;BME280;15351;52.408;16.826;2023-12-20T00:09:49;100111.92;;;9.28;89.45
26436;BME280;15351;52.408;16.826;2023-12-20T00:15:36;100112.20;;;9.32;89.34
26436;BME280;15351;52.408;16.826;2023-12-20T00:18:28;100109.27;;;9.32;89.31
26436;BME280;15351;52.408;16.826;2023-12-20T00:21:31;100109.77;;;9.32;89.29
26436;BME280;15351;52.408;16.826;2023-12-20T00:24:51;100105.04;;;9.31;89.16
26436;BME280;15351;52.408;16.826;2023-12-20T00:28:15;100105.71;;;9.32;89.25
26436;BME280;15351;52.408;16.826;2023-12-20T00:31:34;100101.63;;;9.33;89.22
26436;BME280;15351;52.408;16.826;2023-12-20T00:34:22;100100.41;;;9.34;89.27
26436;BME280;15351;52.408;16.826;2023-12-20T00:37:16;100094.79;;;9.35;89.16
26436;BME280;15351;52.408;16.826;2023-12-20T00:40:04;100093.44;;;9.36;89.15
26436;BME280;15351;52.408;16.826;2023-12-20T00:43:16;100094.17;;;9.35;89.28
26436;BME280;15351;52.408;16.826;2023-12-20T00:46:12;100094.45;;;9.35;89.10
26436;BME280;15351;52.408;16.826;2023-12-20T00:49:37;100099.73;;;9.34;89.05
26436;BME280;15351;52.408;16.826;2023-12-20T00:52:37;100098.86;;;9.34;89.18
26436;BME280;15351;52.408;16.826;2023-12-20T00:55:52;100090.50;;;9.31;89.20
26436;BME280;15351;52.408;16.826;2023-12-20T01:02:33;100092.48;;;9.29;89.11
26436;BME280;15351;52.408;16.826;2023-12-20T01:05:04;100086.39;;;9.27;89.13
26436;BME280;15351;52.408;16.826;2023-12-20T01:07:59;100088.08;;;9.32;89.19
26436;BME280;15351;52.408;16.826;2023-12-20T01:10:55;100086.29;;;9.32;89.01
26436;BME280;15351;52.408;16.826;2023-12-20T01:13:48;100076.21;;;9.31;88.97
26436;BME280;15351;52.408;16.826;2023-12-20T01:17:01;100075.70;;;9.31;88.97
26436;BME280;15351;52.408;16.826;2023-12-20T01:20:01;100083.62;;;9.34;88.91
26436;BME280;15351;52.408;16.826;2023-12-20T01:23:02;100079.27;;;9.31;88.95
26436;BME280;15351;52.408;16.826;2023-12-20T01:25:37;100073.15;;;9.30;89.03
26436;BME280;15351;52.408;16.826;2023-12-20T01:28:31;100075.48;;;9.31;88.88
26436;BME280;15351;52.408;16.826;2023-12-20T01:31:55;100075.48;;;9.30;88.95
26436;BME280;15351;52.408;16.826;2023-12-20T01:34:46;100070.21;;;9.27;88.72
26436;BME280;15351;52.408;16.826;2023-12-20T01:38:00;100067.67;;;9.26;88.88
26436;BME280;15351;52.408;16.826;2023-12-20T01:40:53;100065.65;;;9.27;89.00
26436;BME280;15351;52.408;16.826;2023-12-20T01:43:48;100055.16;;;9.26;88.97
26436;BME280;15351;52.408;16.826;2023-12-20T01:46:50;100050.31;;;9.26;88.75
26436;BME280;15351;52.408;16.826;2023-12-20T01:53:10;100044.44;;;9.24;88.79
26436;BME280;15351;52.408;16.826;2023-12-20T01:56:13;100043.57;;;9.24;88.69
26436;BME280;15351;52.408;16.826;2023-12-20T01:59:06;100043.33;;;9.23;88.74
26436;BME280;15351;52.408;16.826;2023-12-20T02:02:06;100042.09;;;9.19;88.74
26436;BME280;15351;52.408;16.826;2023-12-20T02:07:46;100037.38;;;9.17;88.86
26436;BME280;15351;52.408;16.826;2023-12-20T02:14:37;100030.87;;;9.17;88.84
26436;BME280;15351;52.408;16.826;2023-12-20T02:20:48;100026.12;;;9.18;88.77
26436;BME280;15351;52.408;16.826;2023-12-20T02:23:41;100028.21;;;9.18;88.92
26436;BME280;15351;52.408;16.826;2023-12-20T02:27:14;100018.92;;;9.18;88.86
26436;BME280;15351;52.408;16.826;2023-12-20T02:33:30;100019.13;;;9.18;88.78
26436;BME280;15351;52.408;16.826;2023-12-20T02:36:34;100017.54;;;9.18;88.68
26436;BME280;15351;52.408;16.826;2023-12-20T02:39:44;100014.88;;;9.14;88.74
26436;BME280;15351;52.408;16.826;2023-12-20T02:42:31;100010.81;;;9.14;88.66
26436;BME280;15351;52.408;16.826;2023-12-20T02:45:41;100006.17;;;9.14;88.67
26436;BME280;15351;52.408;16.826;2023-12-20T02:51:28;100004.20;;;9.12;88.72
26436;BME280;15351;52.408;16.826;2023-12-20T02:54:57;100011.20;;;9.12;88.56
26436;BME280;15351;52.408;16.826;2023-12-20T02:58:08;100010.58;;;9.08;88.63
26436;BME280;15351;52.408;16.826;2023-12-20T03:00:49;100014.66;;;9.07;88.61
26436;BME280;15351;52.408;16.826;2023-12-20T03:03:49;100017.91;;;9.07;88.63
26436;BME280;15351;52.408;16.826;2023-12-20T03:06:57;100013.07;;;9.05;88.59
26436;BME280;15351;52.408;16.826;2023-12-20T03:10:05;100006.06;;;9.01;88.58
26436;BME280;15351;52.408;16.826;2023-12-20T03:13:28;100003.17;;;9.01;88.74
26436;BME280;15351;52.408;16.826;2023-12-20T03:16:12;100001.78;;;9.04;88.86
26436;BME280;15351;52.408;16.826;2023-12-20T03:19:09;99999.83;;;9.04;88.74
26436;BME280;15351;52.408;16.826;2023-12-20T03:22:09;99996.00;;;9.03;88.64
26436;BME280;15351;52.408;16.826;2023-12-20T03:28:24;99983.45;;;9.00;88.94
26436;BME280;15351;52.408;16.826;2023-12-20T03:31:07;99987.34;;;9.00;88.79
26436;BME280;15351;52.408;16.826;2023-12-20T03:34:19;99981.25;;;9.02;88.88
26436;BME280;15351;52.408;16.826;2023-12-20T03:40:00;99981.39;;;8.98;88.63
26436;BME280;15351;52.408;16.826;2023-12-20T03:42:59;99989.37;;;8.96;88.90
26436;BME280;15351;52.408;16.826;2023-12-20T03:45:44;99987.45;;;8.95;88.77
26436;BME280;15351;52.408;16.826;2023-12-20T03:48:29;99991.05;;;8.95;88.94
26436;BME280;15351;52.408;16.826;2023-12-20T03:51:23;99985.03;;;8.94;88.87
26436;BME280;15351;52.408;16.826;2023-12-20T03:54:32;99981.90;;;8.95;88.93
26436;BME280;15351;52.408;16.826;2023-12-20T03:57:25;99985.48;;;8.95;88.76
26436;BME280;15351;52.408;16.826;2023-12-20T04:01:28;99978.48;;;8.94;88.85
26436;BME280;15351;52.408;16.826;2023-12-20T04:04:03;99981.91;;;8.92;88.74
26436;BME280;15351;52.408;16.826;2023-12-20T04:06:49;99981.08;;;8.91;88.86
26436;BME280;15351;52.408;16.826;2023-12-20T04:09:34;99982.66;;;8.92;88.92
26436;BME280;15351;52.408;16.826;2023-12-20T04:12:34;99982.83;;;8.92;88.86
26436;BME280;15351;52.408;16.826;2023-12-20T04:15:32;99981.11;;;8.91;89.00
26436;BME280;15351;52.408;16.826;2023-12-20T04:19:18;99981.23;;;8.90;88.97
26436;BME280;15351;52.408;16.826;2023-12-20T04:22:13;99975.23;;;8.89;88.98
26436;BME280;15351;52.408;16.826;2023-12-20T04:24:56;99974.02;;;8.89;89.03
26436;BME280;15351;52.408;16.826;2023-12-20T04:31:28;99974.27;;;8.90;89.14
26436;BME280;15351;52.408;16.826;2023-12-20T04:34:04;99975.79;;;8.90;89.35
26436;BME280;15351;52.408;16.826;2023-12-20T04:37:01;99974.52;;;8.91;88.98
26436;BME280;15351;52.408;16.826;2023-12-20T04:39:47;99971.39;;;8.90;89.12
26436;BME280;15351;52.408;16.826;2023-12-20T04:42:32;99969.81;;;8.89;89.26
26436;BME280;15351;52.408;16.826;2023-12-20T04:45:36;99970.33;;;8.91;89.34
26436;BME280;15351;52.408;16.826;2023-12-20T04:52:07;99964.55;;;8.90;89.06
26436;BME280;15351;52.408;16.826;2023-12-20T04:58:51;99967.47;;;8.88;89.10
26436;BME280;15351;52.408;16.826;2023-12-20T05:01:59;99973.89;;;8.88;89.21
26436;BME280;15351;52.408;16.826;2023-12-20T05:05:08;99974.38;;;8.90;89.25
26436;BME280;15351;52.408;16.826;2023-12-20T05:07:55;99976.06;;;8.91;89.11
26436;BME280;15351;52.408;16.826;2023-12-20T05:11:08;99975.60;;;8.92;89.29
26436;BME280;15351;52.408;16.826;2023-12-20T05:17:23;99978.71;;;8.90;89.24
26436;BME280;15351;52.408;16.826;2023-12-20T05:19:55;99982.12;;;8.90;89.06
26436;BME280;15351;52.408;16.826;2023-12-20T05:22:36;99980.45;;;8.92;89.27
26436;BME280;15351;52.408;16.826;2023-12-20T05:25:41;99976.90;;;8.92;89.08
26436;BME280;15351;52.408;16.826;2023-12-20T05:28:47;99983.82;;;8.91;89.05
26436;BME280;15351;52.408;16.826;2023-12-20T05:31:24;99976.54;;;8.89;89.13
26436;BME280;15351;52.408;16.826;2023-12-20T05:40:52;99977.08;;;8.92;89.13
26436;BME280;15351;52.408;16.826;2023-12-20T05:43:34;99971.50;;;8.92;89.16
26436;BME280;15351;52.408;16.826;2023-12-20T05:46:38;99968.08;;;8.92;89.17
26436;BME280;15351;52.408;16.826;2023-12-20T05:50:03;99967.94;;;8.92;89.17
26436;BME280;15351;52.408;16.826;2023-12-20T05:52:57;99969.77;;;8.91;89.13
26436;BME280;15351;52.408;16.826;2023-12-20T05:59:30;99967.09;;;8.91;88.93
26436;BME280;15351;52.408;16.826;2023-12-20T06:23:22;99959.24;;;8.96;88.59
26436;BME280;15351;52.408;16.826;2023-12-20T06:29:42;99964.95;;;8.97;88.42
26436;BME280;15351;52.408;16.826;2023-12-20T06:32:35;99974.15;;;8.99;88.34
26436;BME280;15351;52.408;16.826;2023-12-20T06:35:27;99977.41;;;8.98;88.42
26436;BME280;15351;52.408;16.826;2023-12-20T06:48:11;99974.23;;;8.90;87.94
26436;BME280;15351;52.408;16.826;2023-12-20T06:50:39;99970.60;;;8.87;87.69
26436;BME280;15351;52.408;16.826;2023-12-20T06:53:16;99975.20;;;8.85;87.80
26436;BME280;15351;52.408;16.826;2023-12-20T06:55:43;99979.30;;;8.85;87.86
26436;BME280;15351;52.408;16.826;2023-12-20T06:58:20;99983.89;;;8.86;87.75
26436;BME280;15351;52.408;16.826;2023-12-20T07:00:47;99986.84;;;8.82;87.71
26436;BME280;15351;52.408;16.826;2023-12-20T07:03:15;99993.51;;;8.80;87.67
26436;BME280;15351;52.408;16.826;2023-12-20T07:05:44;100004.23;;;8.79;87.67
26436;BME280;15351;52.408;16.826;2023-12-20T07:08:15;100004.00;;;8.80;87.70
26436;BME280;15351;52.408;16.826;2023-12-20T07:10:51;100002.61;;;8.78;87.45
26436;BME280;15351;52.408;16.826;2023-12-20T07:13:19;100008.98;;;8.75;87.62
26436;BME280;15351;52.408;16.826;2023-12-20T07:15:46;100013.34;;;8.75;87.41
26436;BME280;15351;52.408;16.826;2023-12-20T07:22:30;100025.93;;;8.71;87.56
26436;BME280;15351;52.408;16.826;2023-12-20T07:24:43;100027.21;;;8.71;87.66
26436;BME280;15351;52.408;16.826;2023-12-20T07:27:14;100031.17;;;8.72;87.67
26436;BME280;15351;52.408;16.826;2023-12-20T07:29:44;100029.62;;;8.73;87.63
26436;BME280;15351;52.408;16.826;2023-12-20T07:32:29;100030.64;;;8.72;87.58
26436;BME280;15351;52.408;16.826;2023-12-20T07:35:17;100028.58;;;8.73;87.67
26436;BME280;15351;52.408;16.826;2023-12-20T07:38:03;100030.86;;;8.77;87.70
26436;BME280;15351;52.408;16.826;2023-12-20T07:40:34;100031.58;;;8.78;87.69
26436;BME280;15351;52.408;16.826;2023-12-20T07:43:07;100040.70;;;8.80;87.59
26436;BME280;15351;52.408;16.826;2023-12-20T07:45:37;100037.35;;;8.80;87.64
26436;BME280;15351;52.408;16.826;2023-12-20T07:48:07;100033.89;;;8.77;87.75
26436;BME280;15351;52.408;16.826;2023-12-20T07:51:04;100038.66;;;8.77;87.69
26436;BME280;15351;52.408;16.826;2023-12-20T07:53:46;100032.04;;;8.76;87.63
26436;BME280;15351;52.408;16.826;2023-12-20T07:56:36;100032.05;;;8.74;87.81
26436;BME280;15351;52.408;16.826;2023-12-20T07:59:49;100028.05;;;8.76;87.75
26436;BME280;15351;52.408;16.826;2023-12-20T08:02:29;100025.90;;;8.76;87.95
26436;BME280;15351;52.408;16.826;2023-12-20T08:04:56;100027.15;;;8.76;87.84
26436;BME280;15351;52.408;16.826;2023-12-20T08:07:29;100019.80;;;8.78;87.98
26436;BME280;15351;52.408;16.826;2023-12-20T08:09:57;100016.12;;;8.77;87.84
26436;BME280;15351;52.408;16.826;2023-12-20T08:12:32;100018.23;;;8.79;87.81
26436;BME280;15351;52.408;16.826;2023-12-20T08:15:13;100018.12;;;8.80;87.70
26436;BME280;15351;52.408;16.826;2023-12-20T08:17:59;100011.84;;;8.79;87.58
26436;BME280;15351;52.408;16.826;2023-12-20T08:20:43;100013.17;;;8.79;87.36
26436;BME280;15351;52.408;16.826;2023-12-20T08:23:22;100012.48;;;8.79;87.29
26436;BME280;15351;52.408;16.826;2023-12-20T08:26:10;100011.67;;;8.77;87.14
26436;BME280;15351;52.408;16.826;2023-12-20T08:28:52;100010.84;;;8.76;86.84
26436;BME280;15351;52.408;16.826;2023-12-20T08:31:34;100011.48;;;8.75;86.83
26436;BME280;15351;52.408;16.826;2023-12-20T08:34:11;100013.58;;;8.74;86.50
26436;BME280;15351;52.408;16.826;2023-12-20T08:36:46;100015.61;;;8.72;86.42
26436;BME280;15351;52.408;16.826;2023-12-20T08:39:28;100018.06;;;8.73;86.26
26436;BME280;15351;52.408;16.826;2023-12-20T08:42:19;100016.26;;;8.71;86.15
26436;BME280;15351;52.408;16.826;2023-12-20T08:44:55;100016.21;;;8.72;86.13
26436;BME280;15351;52.408;16.826;2023-12-20T08:47:57;100003.02;;;8.63;86.02
26436;BME280;15351;52.408;16.826;2023-12-20T08:50:38;100012.82;;;8.67;86.19
26436;BME280;15351;52.408;16.826;2023-12-20T08:53:08;100018.16;;;8.67;86.29
26436;BME280;15351;52.408;16.826;2023-12-20T08:55:36;100016.41;;;8.67;86.36
26436;BME280;15351;52.408;16.826;2023-12-20T08:58:07;100019.61;;;8.65;86.41
26436;BME280;15351;52.408;16.826;2023-12-20T09:00:40;100022.38;;;8.65;86.22
26436;BME280;15351;52.408;16.826;2023-12-20T09:03:20;100024.80;;;8.64;86.32
26436;BME280;15351;52.408;16.826;2023-12-20T09:05:50;100015.27;;;8.60;86.29
26436;BME280;15351;52.408;16.826;2023-12-20T09:08:20;100013.98;;;8.62;86.21
26436;BME280;15351;52.408;16.826;2023-12-20T09:10:53;100012.21;;;8.66;86.38
26436;BME280;15351;52.408;16.826;2023-12-20T09:13:21;100011.35;;;8.70;86.39
26436;BME280;15351;52.408;16.826;2023-12-20T09:15:55;100011.80;;;8.74;86.10
26436;BME280;15351;52.408;16.826;2023-12-20T09:18:29;100013.75;;;8.79;86.07
26436;BME280;15351;52.408;16.826;2023-12-20T09:20:59;100004.40;;;8.85;86.02
26436;BME280;15351;52.408;16.826;2023-12-20T09:23:45;99996.83;;;8.87;85.77
26436;BME280;15351;52.408;16.826;2023-12-20T09:26:19;99997.63;;;8.88;85.55
26436;BME280;15351;52.408;16.826;2023-12-20T09:28:53;99997.98;;;8.89;85.16
26436;BME280;15351;52.408;16.826;2023-12-20T09:31:20;99997.52;;;8.95;84.99
26436;BME280;15351;52.408;16.826;2023-12-20T09:33:56;99990.64;;;9.00;84.95
26436;BME280;15351;52.408;16.826;2023-12-20T09:36:23;100000.75;;;9.09;85.04
26436;BME280;15351;52.408;16.826;2023-12-20T09:39:14;100002.00;;;9.18;84.95
26436;BME280;15351;52.408;16.826;2023-12-20T09:42:03;99996.83;;;9.21;84.79
26436;BME280;15351;52.408;16.826;2023-12-20T09:44:36;99997.23;;;9.21;84.87
26436;BME280;15351;52.408;16.826;2023-12-20T09:47:20;99993.20;;;9.17;84.52
26436;BME280;15351;52.408;16.826;2023-12-20T09:50:36;99994.59;;;9.16;84.43
26436;BME280;15351;52.408;16.826;2023-12-20T09:53:41;99992.85;;;9.14;84.59
26436;BME280;15351;52.408;16.826;2023-12-20T09:56:26;99983.95;;;9.09;84.24
26436;BME280;15351;52.408;16.826;2023-12-20T10:02:21;99973.98;;;9.02;84.10
26436;BME280;15351;52.408;16.826;2023-12-20T10:05:34;99968.25;;;9.04;84.07
26436;BME280;15351;52.408;16.826;2023-12-20T10:08:23;99961.34;;;9.02;83.88
26436;BME280;15351;52.408;16.826;2023-12-20T10:11:26;99952.52;;;8.97;83.68
26436;BME280;15351;52.408;16.826;2023-12-20T10:14:03;99938.43;;;8.90;83.69
26436;BME280;15351;52.408;16.826;2023-12-20T10:17:11;99940.88;;;8.96;83.79
26436;BME280;15351;52.408;16.826;2023-12-20T10:19:54;99932.85;;;8.96;83.60
26436;BME280;15351;52.408;16.826;2023-12-20T10:22:28;99924.95;;;8.92;83.56
26436;BME280;15351;52.408;16.826;2023-12-20T10:25:13;99927.39;;;8.94;83.52
26436;BME280;15351;52.408;16.826;2023-12-20T10:28:22;99930.65;;;8.90;83.58
26436;BME280;15351;52.408;16.826;2023-12-20T10:31:35;99931.31;;;8.89;83.39
26436;BME280;15351;52.408;16.826;2023-12-20T10:34:12;99926.71;;;8.89;83.48
26436;BME280;15351;52.408;16.826;2023-12-20T10:36:44;99919.98;;;8.86;83.30
26436;BME280;15351;52.408;16.826;2023-12-20T10:39:24;99923.64;;;8.83;82.98
26436;BME280;15351;52.408;16.826;2023-12-20T10:42:06;99914.77;;;8.78;82.92
26436;BME280;15351;52.408;16.826;2023-12-20T10:44:49;99911.85;;;8.78;83.08
26436;BME280;15351;52.408;16.826;2023-12-20T10:47:28;99906.89;;;8.75;82.78
26436;BME280;15351;52.408;16.826;2023-12-20T10:50:05;99911.23;;;8.76;82.62
26436;BME280;15351;52.408;16.826;2023-12-20T10:53:30;99909.52;;;8.70;82.61
26436;BME280;15351;52.408;16.826;2023-12-20T10:56:08;99905.21;;;8.67;82.65
26436;BME280;15351;52.408;16.826;2023-12-20T10:59:15;99902.95;;;8.68;82.61
26436;BME280;15351;52.408;16.826;2023-12-20T11:02:13;99895.55;;;8.70;82.59
26436;BME280;15351;52.408;16.826;2023-12-20T11:05:41;99897.52;;;8.72;82.63
26436;BME280;15351;52.408;16.826;2023-12-20T11:08:19;99890.02;;;8.73;82.40
26436;BME280;15351;52.408;16.826;2023-12-20T11:11:07;99891.01;;;8.74;82.34
26436;BME280;15351;52.408;16.826;2023-12-20T11:13:57;99884.14;;;8.74;82.38
26436;BME280;15351;52.408;16.826;2023-12-20T11:16:25;99880.79;;;8.74;82.37
26436;BME280;15351;52.408;16.826;2023-12-20T11:18:56;99880.86;;;8.73;82.27
26436;BME280;15351;52.408;16.826;2023-12-20T11:21:23;99869.90;;;8.71;82.42
26436;BME280;15351;52.408;16.826;2023-12-20T11:23:50;99870.23;;;8.71;82.44
26436;BME280;15351;52.408;16.826;2023-12-20T11:26:27;99861.41;;;8.68;82.34
26436;BME280;15351;52.408;16.826;2023-12-20T11:29:30;99855.67;;;8.68;82.34
26436;BME280;15351;52.408;16.826;2023-12-20T11:34:53;99853.95;;;8.67;82.46
26436;BME280;15351;52.408;16.826;2023-12-20T11:37:25;99848.47;;;8.66;82.61
26436;BME280;15351;52.408;16.826;2023-12-20T11:40:07;99843.20;;;8.69;82.61
26436;BME280;15351;52.408;16.826;2023-12-20T11:42:39;99841.45;;;8.71;82.87
26436;BME280;15351;52.408;16.826;2023-12-20T11:45:15;99840.86;;;8.70;82.71
26436;BME280;15351;52.408;16.826;2023-12-20T11:47:46;99840.38;;;8.69;82.74
26436;BME280;15351;52.408;16.826;2023-12-20T11:50:23;99837.27;;;8.66;82.75
26436;BME280;15351;52.408;16.826;2023-12-20T11:52:52;99835.94;;;8.65;82.79
26436;BME280;15351;52.408;16.826;2023-12-20T11:55:41;99835.34;;;8.64;82.93
26436;BME280;15351;52.408;16.826;2023-12-20T11:58:33;99834.72;;;8.60;83.01
26436;BME280;15351;52.408;16.826;2023-12-20T12:01:13;99832.30;;;8.60;83.01
26436;BME280;15351;52.408;16.826;2023-12-20T12:04:28;99822.58;;;8.56;82.85
26436;BME280;15351;52.408;16.826;2023-12-20T12:07:37;99819.71;;;8.56;83.11
26436;BME280;15351;52.408;16.826;2023-12-20T12:13:32;99804.84;;;8.52;83.15
26436;BME280;15351;52.408;16.826;2023-12-20T12:16:27;99799.20;;;8.51;83.30
26436;BME280;15351;52.408;16.826;2023-12-20T12:19:01;99799.09;;;8.52;83.40
26436;BME280;15351;52.408;16.826;2023-12-20T12:21:32;99798.35;;;8.52;83.40
26436;BME280;15351;52.408;16.826;2023-12-20T12:24:20;99795.81;;;8.51;83.41
26436;BME280;15351;52.408;16.826;2023-12-20T12:30:05;99784.20;;;8.44;83.47
26436;BME280;15351;52.408;16.826;2023-12-20T12:32:47;99780.06;;;8.45;83.35
26436;BME280;15351;52.408;16.826;2023-12-20T12:35:30;99774.61;;;8.44;83.12
26436;BME280;15351;52.408;16.826;2023-12-20T12:38:27;99765.02;;;8.43;83.12
26436;BME280;15351;52.408;16.826;2023-12-20T12:41:01;99763.23;;;8.43;83.10
26436;BME280;15351;52.408;16.826;2023-12-20T12:46:38;99762.16;;;8.43;83.09
26436;BME280;15351;52.408;16.826;2023-12-20T12:49:40;99755.20;;;8.43;82.91
26436;BME280;15351;52.408;16.826;2023-12-20T12:52:40;99754.40;;;8.42;82.84
26436;BME280;15351;52.408;16.826;2023-12-20T12:55:19;99748.05;;;8.38;82.80
26436;BME280;15351;52.408;16.826;2023-12-20T12:57:52;99748.83;;;8.39;82.76
26436;BME280;15351;52.408;16.826;2023-12-20T13:00:42;99746.41;;;8.38;82.78
26436;BME280;15351;52.408;16.826;2023-12-20T13:03:26;99745.38;;;8.38;82.77
26436;BME280;15351;52.408;16.826;2023-12-20T13:06:17;99754.75;;;8.38;82.45
26436;BME280;15351;52.408;16.826;2023-12-20T13:09:18;99748.19;;;8.38;82.59
26436;BME280;15351;52.408;16.826;2023-12-20T13:11:50;99737.23;;;8.39;82.43
26436;BME280;15351;52.408;16.826;2023-12-20T13:14:52;99730.81;;;8.43;82.54
26436;BME280;15351;52.408;16.826;2023-12-20T13:17:35;99732.05;;;8.45;82.33
26436;BME280;15351;52.408;16.826;2023-12-20T13:20:16;99715.84;;;8.45;82.39
26436;BME280;15351;52.408;16.826;2023-12-20T13:22:55;99711.70;;;8.47;82.29
26436;BME280;15351;52.408;16.826;2023-12-20T13:25:32;99703.15;;;8.48;82.09
26436;BME280;15351;52.408;16.826;2023-12-20T13:28:06;99700.95;;;8.50;82.07
26436;BME280;15351;52.408;16.826;2023-12-20T13:30:53;99699.85;;;8.49;82.20
26436;BME280;15351;52.408;16.826;2023-12-20T13:33:45;99695.51;;;8.51;82.00
26436;BME280;15351;52.408;16.826;2023-12-20T13:36:14;99699.27;;;8.50;81.81
26436;BME280;15351;52.408;16.826;2023-12-20T13:38:42;99696.45;;;8.50;81.64
26436;BME280;15351;52.408;16.826;2023-12-20T13:41:37;99697.17;;;8.49;81.47
26436;BME280;15351;52.408;16.826;2023-12-20T13:44:04;99697.22;;;8.47;81.30
26436;BME280;15351;52.408;16.826;2023-12-20T13:46:32;99697.84;;;8.47;81.29
26436;BME280;15351;52.408;16.826;2023-12-20T13:49:00;99688.23;;;8.48;81.22
26436;BME280;15351;52.408;16.826;2023-12-20T13:51:50;99675.88;;;8.48;81.18
26436;BME280;15351;52.408;16.826;2023-12-20T13:54:45;99669.86;;;8.48;81.06
26436;BME280;15351;52.408;16.826;2023-12-20T13:57:44;99678.50;;;8.47;80.90
26436;BME280;15351;52.408;16.826;2023-12-20T14:00:38;99677.30;;;8.47;80.86
26436;BME280;15351;52.408;16.826;2023-12-20T14:03:16;99674.61;;;8.47;80.84
26436;BME280;15351;52.408;16.826;2023-12-20T14:13:09;99655.42;;;8.50;80.82
26436;BME280;15351;52.408;16.826;2023-12-20T14:19:01;99645.72;;;8.53;80.54
26436;BME280;15351;52.408;16.826;2023-12-20T14:21:42;99641.98;;;8.55;80.35
26436;BME280;15351;52.408;16.826;2023-12-20T14:24:24;99639.49;;;8.57;80.42
26436;BME280;15351;52.408;16.826;2023-12-20T14:30:33;99640.95;;;8.58;80.16
26436;BME280;15351;52.408;16.826;2023-12-20T14:33:45;99639.64;;;8.59;80.10
26436;BME280;15351;52.408;16.826;2023-12-20T14:36:49;99632.81;;;8.61;80.15
26436;BME280;15351;52.408;16.826;2023-12-20T14:39:34;99626.39;;;8.63;79.76
26436;BME280;15351;52.408;16.826;2023-12-20T14:42:41;99630.71;;;8.63;79.72
26436;BME280;15351;52.408;16.826;2023-12-20T14:45:35;99621.95;;;8.62;79.63
26436;BME280;15351;52.408;16.826;2023-12-20T14:48:42;99618.19;;;8.63;79.59
26436;BME280;15351;52.408;16.826;2023-12-20T14:51:35;99616.44;;;8.62;79.92
26436;BME280;15351;52.408;16.826;2023-12-20T14:54:34;99615.05;;;8.60;79.91
26436;BME280;15351;52.408;16.826;2023-12-20T14:57:38;99611.38;;;8.60;79.94
26436;BME280;15351;52.408;16.826;2023-12-20T15:00:10;99609.11;;;8.58;80.03
26436;BME280;15351;52.408;16.826;2023-12-20T15:03:07;99607.85;;;8.57;80.11
26436;BME280;15351;52.408;16.826;2023-12-20T15:05:43;99605.42;;;8.55;80.46
26436;BME280;15351;52.408;16.826;2023-12-20T15:08:56;99596.94;;;8.54;80.39
26436;BME280;15351;52.408;16.826;2023-12-20T15:11:27;99594.24;;;8.54;80.55
26436;BME280;15351;52.408;16.826;2023-12-20T15:13:55;99603.36;;;8.55;80.48
26436;BME280;15351;52.408;16.826;2023-12-20T15:16:26;99601.39;;;8.52;80.43
26436;BME280;15351;52.408;16.826;2023-12-20T15:19:24;99588.92;;;8.52;80.49
26436;BME280;15351;52.408;16.826;2023-12-20T15:22:04;99589.05;;;8.52;80.59
26436;BME280;15351;52.408;16.826;2023-12-20T15:25:00;99582.77;;;8.51;80.62
26436;BME280;15351;52.408;16.826;2023-12-20T15:27:37;99595.58;;;8.46;80.32
26436;BME280;15351;52.408;16.826;2023-12-20T15:30:09;99600.14;;;8.41;80.15
26436;BME280;15351;52.408;16.826;2023-12-20T15:32:53;99618.61;;;8.42;80.28
26436;BME280;15351;52.408;16.826;2023-12-20T15:38:25;99628.91;;;8.28;80.36
26436;BME280;15351;52.408;16.826;2023-12-20T15:41:05;99621.94;;;8.19;80.34
26436;BME280;15351;52.408;16.826;2023-12-20T15:43:39;99605.50;;;8.17;80.64
26436;BME280;15351;52.408;16.826;2023-12-20T15:46:32;99611.46;;;8.16;80.74
26436;BME280;15351;52.408;16.826;2023-12-20T15:49:10;99604.52;;;8.13;80.75
26436;BME280;15351;52.408;16.826;2023-12-20T15:51:42;99600.00;;;8.13;80.94
26436;BME280;15351;52.408;16.826;2023-12-20T15:54:10;99595.16;;;8.15;80.90
26436;BME280;15351;52.408;16.826;2023-12-20T15:56:38;99594.42;;;8.13;80.68
26436;BME280;15351;52.408;16.826;2023-12-20T15:59:37;99593.79;;;8.08;80.80
26436;BME280;15351;52.408;16.826;2023-12-20T16:02:08;99595.88;;;8.07;80.82
26436;BME280;15351;52.408;16.826;2023-12-20T16:04:38;99603.42;;;8.05;81.05
26436;BME280;15351;52.408;16.826;2023-12-20T16:07:26;99640.80;;;8.03;81.03
26436;BME280;15351;52.408;16.826;2023-12-20T16:09:58;99684.31;;;8.01;81.32
26436;BME280;15351;52.408;16.826;2023-12-20T16:12:44;99687.83;;;7.91;80.98
26436;BME280;15351;52.408;16.826;2023-12-20T16:15:17;99687.99;;;7.79;80.08
26436;BME280;15351;52.408;16.826;2023-12-20T16:17:45;99660.92;;;7.68;79.50
26436;BME280;15351;52.408;16.826;2023-12-20T16:20:30;99646.86;;;7.58;79.11
26436;BME280;15351;52.408;16.826;2023-12-20T16:23:01;99638.08;;;7.51;79.05
26436;BME280;15351;52.408;16.826;2023-12-20T16:25:34;99626.96;;;7.45;79.00
26436;BME280;15351;52.408;16.826;2023-12-20T16:28:07;99620.92;;;7.40;78.92
26436;BME280;15351;52.408;16.826;2023-12-20T16:30:41;99629.00;;;7.34;78.85
26436;BME280;15351;52.408;16.826;2023-12-20T16:33:11;99625.05;;;7.31;78.89
26436;BME280;15351;52.408;16.826;2023-12-20T16:35:38;99631.09;;;7.30;78.95
26436;BME280;15351;52.408;16.826;2023-12-20T16:38:17;99627.52;;;7.27;78.92
26436;BME280;15351;52.408;16.826;2023-12-20T16:40:47;99624.20;;;7.22;78.89
26436;BME280;15351;52.408;16.826;2023-12-20T16:43:15;99624.14;;;7.16;78.98
26436;BME280;15351;52.408;16.826;2023-12-20T16:45:42;99628.70;;;7.11;78.93
26436;BME280;15351;52.408;16.826;2023-12-20T16:48:10;99632.27;;;7.08;79.10
26436;BME280;15351;52.408;16.826;2023-12-20T16:50:37;99632.35;;;7.04;79.09